Time;durP1;ratioP1;P1;durP2;ratioP2;P2;SDS_P1;SDS_P2;PMS_P1;PMS_P2;Temp;Humidity;BMP_temperature;BMP_pressure;BME280_temperature;BME280_humidity;BME280_pressure;Samples;Min_cycle;Max_cycle;Signal;HPM_P1;HPM_P2
2021/09/08 04:15:46;;;;;;;24.70;15.77;;;;;;;11.03;100.00;99017.47;5748119;23;20047;-76
2021/09/08 04:18:12;;;;;;;23.15;15.32;;;;;;;10.99;100.00;99013.19;4974387;28;20049;-76
2021/09/08 04:20:37;;;;;;;25.48;15.57;;;;;;;11.00;100.00;99017.50;4974359;28;20483;-76
2021/09/08 04:23:02;;;;;;;22.70;16.20;;;;;;;10.96;100.00;99013.25;4974047;28;20107;-76
2021/09/08 04:25:27;;;;;;;21.25;15.02;;;;;;;10.98;100.00;99019.28;4974184;28;20026;-76
2021/09/08 04:27:53;;;;;;;20.50;15.88;;;;;;;10.95;100.00;99019.31;4995054;23;20027;-72
2021/09/08 04:30:18;;;;;;;21.90;15.30;;;;;;;10.92;100.00;99014.16;4974081;28;20043;-72
2021/09/08 04:32:43;;;;;;;21.70;15.93;;;;;;;10.90;100.00;99015.94;4965668;28;20042;-72
2021/09/08 04:35:09;;;;;;;20.33;15.23;;;;;;;10.95;100.00;99018.44;4961457;28;20034;-72
2021/09/08 04:37:36;;;;;;;21.75;16.13;;;;;;;10.92;100.00;99013.31;4954585;28;20035;-72
2021/09/08 04:40:02;;;;;;;23.08;15.85;;;;;;;10.97;100.00;99011.50;4935782;28;20392;-72
2021/09/08 04:42:27;;;;;;;23.58;16.42;;;;;;;10.95;100.00;99008.94;4935308;29;20031;-72
2021/09/08 04:44:52;;;;;;;20.92;15.40;;;;;;;10.98;100.00;99015.81;4935373;29;20392;-72
2021/09/08 04:47:18;;;;;;;23.48;15.80;;;;;;;10.96;100.00;99015.81;4935294;29;20038;-71
2021/09/08 04:49:43;;;;;;;26.27;16.15;;;;;;;10.96;100.00;99013.25;4936869;29;20628;-71
2021/09/08 04:52:08;;;;;;;22.00;16.63;;;;;;;10.97;100.00;99017.53;4954062;28;20027;-71
2021/09/08 04:54:34;;;;;;;21.35;15.52;;;;;;;11.01;100.00;99007.97;4953939;28;20357;-72
2021/09/08 04:56:59;;;;;;;25.02;17.33;;;;;;;11.01;100.00;99014.00;4954181;28;20023;-72
2021/09/08 04:59:24;;;;;;;20.23;15.35;;;;;;;11.03;100.00;99016.59;4954224;28;20420;-72
2021/09/08 05:01:50;;;;;;;21.38;16.17;;;;;;;11.05;100.00;99013.09;4952075;28;20102;-72
2021/09/08 05:04:15;;;;;;;21.88;16.25;;;;;;;11.05;100.00;99010.50;4942963;29;20366;-72
2021/09/08 05:06:41;;;;;;;19.02;15.15;;;;;;;11.18;100.00;99015.50;4937003;29;20548;-72
2021/09/08 05:09:06;;;;;;;24.08;15.80;;;;;;;11.17;100.00;99018.94;4940051;28;20031;-72
2021/09/08 05:11:31;;;;;;;25.58;15.02;;;;;;;11.24;100.00;99012.78;4954103;28;20028;-72
2021/09/08 05:13:57;;;;;;;18.73;15.00;;;;;;;11.25;100.00;99007.56;4938537;28;20020;-72
2021/09/08 05:16:22;;;;;;;20.52;15.20;;;;;;;11.20;99.97;99013.72;4950105;29;20047;-72
2021/09/08 05:18:47;;;;;;;17.92;14.45;;;;;;;11.22;100.00;99006.78;4940981;29;20027;-72
2021/09/08 05:21:12;;;;;;;20.48;14.63;;;;;;;11.21;99.88;99012.84;4952529;29;20027;-72
2021/09/08 05:23:38;;;;;;;18.45;14.45;;;;;;;11.26;100.00;99008.41;4940686;28;20019;-72
2021/09/08 05:26:05;;;;;;;27.38;14.82;;;;;;;11.35;99.47;99003.09;4949259;29;20488;-72
2021/09/08 05:28:31;;;;;;;23.42;14.40;;;;;;;11.42;98.51;98999.50;4938041;29;20399;-72
2021/09/08 05:30:57;;;;;;;17.25;13.98;;;;;;;11.47;97.79;99008.06;4946073;28;20023;-72
2021/09/08 05:33:22;;;;;;;19.75;13.35;;;;;;;11.65;97.07;99006.00;4939826;29;20028;-72
2021/09/08 05:35:48;;;;;;;21.50;13.75;;;;;;;11.74;96.58;99011.03;4937634;29;20481;-72
2021/09/08 05:38:13;;;;;;;18.15;14.05;;;;;;;11.68;96.22;99006.81;4950173;28;20535;-72
2021/09/08 05:40:38;;;;;;;21.33;14.82;;;;;;;11.66;96.51;99002.56;4939070;29;20030;-72
2021/09/08 05:43:04;;;;;;;21.38;15.65;;;;;;;11.69;96.46;99005.06;4944800;28;20028;-72
2021/09/08 05:45:29;;;;;;;18.83;13.77;;;;;;;11.82;96.28;99004.84;4946350;29;20098;-72
2021/09/08 05:47:54;;;;;;;22.80;14.48;;;;;;;11.90;95.84;99007.31;4938439;28;20082;-72
2021/09/08 05:50:20;;;;;;;15.63;13.18;;;;;;;11.95;95.49;99000.28;4933770;28;20053;-72
2021/09/08 05:52:45;;;;;;;18.85;13.77;;;;;;;11.91;95.31;99003.81;4952181;28;20486;-72
2021/09/08 05:55:11;;;;;;;25.98;13.98;;;;;;;11.92;95.13;99005.50;4943849;29;20030;-72
2021/09/08 05:57:36;;;;;;;18.10;14.07;;;;;;;12.08;95.03;99006.91;4940807;28;20392;-76
2021/09/08 06:00:04;;;;;;;22.23;14.55;;;;;;;12.22;94.53;99011.81;4950191;29;20039;-76
2021/09/08 06:02:29;;;;;;;21.20;14.27;;;;;;;12.33;93.77;99006.41;4937008;29;20436;-75
2021/09/08 06:04:55;;;;;;;20.05;14.48;;;;;;;12.60;92.92;99004.94;4949279;29;20015;-75
2021/09/08 06:07:20;;;;;;;15.20;12.85;;;;;;;12.93;91.22;99007.66;4943840;28;20034;-75
2021/09/08 06:09:46;;;;;;;18.38;13.25;;;;;;;13.25;88.62;99010.38;4952196;29;20485;-75
2021/09/08 06:12:11;;;;;;;15.40;12.20;;;;;;;13.94;86.00;99000.72;4941179;28;20417;-75
2021/09/08 06:14:36;;;;;;;17.02;11.63;;;;;;;14.52;82.92;99009.50;4951886;28;20046;-75
2021/09/08 06:17:02;;;;;;;16.85;10.52;;;;;;;15.62;78.66;98995.47;4946244;29;20031;-75
2021/09/08 06:19:27;;;;;;;15.88;11.90;;;;;;;15.87;75.28;98997.22;4945405;28;20026;-75
2021/09/08 06:21:52;;;;;;;22.35;12.35;;;;;;;15.61;75.40;98998.94;4956620;29;20031;-75
2021/09/08 06:24:18;;;;;;;16.80;11.30;;;;;;;16.77;71.77;98993.81;4940987;28;20031;-75
2021/09/08 06:26:43;;;;;;;17.95;11.77;;;;;;;17.34;68.50;98988.91;4950965;28;20019;-75
2021/09/08 06:29:08;;;;;;;13.52;10.60;;;;;;;17.52;68.17;98988.13;4946760;29;20110;-75
2021/09/08 06:31:34;;;;;;;15.05;10.82;;;;;;;18.49;64.99;98992.53;4944947;28;20051;-76
2021/09/08 06:33:59;;;;;;;15.98;11.50;;;;;;;17.44;66.88;98995.44;4945563;28;20019;-75
2021/09/08 06:36:25;;;;;;;15.32;10.45;;;;;;;18.11;65.49;98997.78;4937150;29;20020;-76
2021/09/08 06:38:50;;;;;;;16.70;11.02;;;;;;;18.35;63.38;98995.81;4943267;28;20028;-76
2021/09/08 06:41:16;;;;;;;14.27;10.35;;;;;;;18.48;63.91;98996.09;4951320;28;20059;-76
2021/09/08 06:43:41;;;;;;;15.85;10.55;;;;;;;19.40;60.66;98986.41;4948283;28;20031;-76
2021/09/08 06:46:07;;;;;;;11.23;10.02;;;;;;;20.03;58.56;98981.41;4943084;29;20027;-76
2021/09/08 06:48:33;;;;;;;13.73;9.95;;;;;;;20.49;56.98;98985.03;4951254;28;20150;-76
2021/09/08 06:50:58;;;;;;;12.20;9.50;;;;;;;20.32;55.83;98981.59;4948885;29;20027;-76
2021/09/08 06:53:23;;;;;;;13.15;9.50;;;;;;;19.93;57.08;98974.94;4945482;28;20382;-76
2021/09/08 06:55:49;;;;;;;15.40;9.65;;;;;;;20.42;56.62;98977.53;4951868;29;20031;-76
2021/09/08 06:58:14;;;;;;;12.15;9.50;;;;;;;20.33;55.80;98978.88;4940134;28;20024;-77
2021/09/08 07:00:40;;;;;;;12.07;9.52;;;;;;;21.64;53.99;98970.53;4950985;28;20028;-76
2021/09/08 07:03:06;;;;;;;13.02;9.20;;;;;;;22.84;49.77;98969.19;4944469;29;20034;-75
2021/09/08 07:05:31;;;;;;;13.32;9.27;;;;;;;22.95;49.81;98971.16;4953072;28;20034;-76
2021/09/08 07:07:57;;;;;;;14.18;9.63;;;;;;;23.74;47.02;98954.41;4940696;28;20035;-76
2021/09/08 07:10:22;;;;;;;14.55;8.80;;;;;;;22.64;49.80;98959.94;4952254;29;20059;-76
2021/09/08 07:12:48;;;;;;;12.77;9.63;;;;;;;21.35;52.74;98963.50;4943254;29;20030;-76
2021/09/08 07:15:13;;;;;;;17.35;9.65;;;;;;;19.33;57.47;98961.34;4946336;28;20024;-76
2021/09/08 07:17:38;;;;;;;17.85;9.63;;;;;;;20.11;56.98;98958.13;4949512;28;20031;-72
2021/09/08 07:20:05;;;;;;;14.93;9.68;;;;;;;21.01;54.37;98939.94;4939954;28;20032;-76
2021/09/08 07:22:30;;;;;;;12.85;9.68;;;;;;;20.32;55.80;98952.66;4951467;28;20019;-76
2021/09/08 07:24:56;;;;;;;13.40;8.73;;;;;;;22.36;51.48;98946.78;4944124;28;20477;-75
2021/09/08 07:27:21;;;;;;;13.07;8.30;;;;;;;23.94;47.48;98939.81;4945253;28;20023;-76
2021/09/08 07:29:46;;;;;;;13.45;9.10;;;;;;;23.53;46.91;98948.75;4950794;29;20031;-76
2021/09/08 07:32:12;;;;;;;13.25;9.27;;;;;;;22.52;49.08;98952.78;4940195;28;20028;-76
2021/09/08 07:34:37;;;;;;;12.02;8.65;;;;;;;22.50;49.78;98944.13;4942727;28;20099;-76
2021/09/08 07:37:03;;;;;;;15.23;8.48;;;;;;;24.05;45.65;98938.06;4944848;29;20070;-76
2021/09/08 07:39:29;;;;;;;16.42;8.55;;;;;;;24.12;45.65;98938.47;4943930;28;20028;-76
2021/09/08 07:41:55;;;;;;;15.77;8.82;;;;;;;24.70;43.80;98934.28;4951520;29;20023;-76
2021/09/08 07:44:21;;;;;;;10.82;8.43;;;;;;;23.99;45.73;98938.53;4939492;28;20031;-76
2021/09/08 07:46:46;;;;;;;14.63;8.13;;;;;;;23.46;46.62;98942.22;4949464;28;20074;-76
2021/09/08 07:49:11;;;;;;;13.40;8.90;;;;;;;24.18;45.64;98938.06;4945528;29;20046;-76
2021/09/08 07:51:36;;;;;;;10.68;8.20;;;;;;;23.91;46.24;98940.00;4955442;28;20711;-76
2021/09/08 07:54:02;;;;;;;11.88;8.15;;;;;;;23.37;47.01;98934.91;4939507;28;20524;-76
2021/09/08 07:56:27;;;;;;;10.63;8.43;;;;;;;25.89;42.53;98925.28;4951716;28;20027;-76
2021/09/08 07:58:53;;;;;;;15.00;7.43;;;;;;;25.94;40.67;98926.72;4943258;29;20019;-76
2021/09/08 08:01:18;;;;;;;12.60;7.68;;;;;;;25.67;41.32;98929.69;4945210;28;20504;-76
2021/09/08 08:03:45;;;;;;;12.68;8.13;;;;;;;25.07;42.55;98928.97;4947808;29;20031;-76
2021/09/08 08:06:10;;;;;;;8.32;7.25;;;;;;;27.42;38.28;98926.06;4950249;29;20081;-76
2021/09/08 08:08:35;;;;;;;10.23;7.43;;;;;;;27.38;37.64;98926.47;4940796;29;20500;-76
2021/09/08 08:11:01;;;;;;;12.85;7.97;;;;;;;28.12;36.51;98920.97;4948722;28;20439;-76
2021/09/08 08:13:27;;;;;;;11.40;7.53;;;;;;;29.37;35.17;98920.28;4945005;28;20059;-76
2021/09/08 08:15:52;;;;;;;17.45;7.00;;;;;;;29.61;34.31;98919.84;4939166;28;20104;-76
2021/09/08 08:18:18;;;;;;;9.90;6.50;;;;;;;30.77;32.58;98920.28;4951583;28;20031;-76
2021/09/08 08:20:43;;;;;;;12.65;6.43;;;;;;;30.84;31.23;98916.81;4945962;29;20027;-76
2021/09/08 08:23:08;;;;;;;9.05;6.05;;;;;;;31.35;30.75;98915.28;4946106;28;20075;-76
2021/09/08 08:25:34;;;;;;;7.88;6.47;;;;;;;32.22;28.91;98913.44;4948564;29;20029;-76
2021/09/08 08:28:02;;;;;;;9.05;5.75;;;;;;;32.78;28.71;98914.59;4939004;28;20099;-76
2021/09/08 08:30:28;;;;;;;10.98;6.70;;;;;;;32.78;28.71;98908.38;4935401;29;20483;-76
2021/09/08 08:32:53;;;;;;;7.20;6.10;;;;;;;32.75;27.86;98914.94;4941497;29;20393;-76
2021/09/08 08:35:18;;;;;;;9.15;5.70;;;;;;;31.89;29.56;98915.97;4951859;28;20034;-76
2021/09/08 08:37:44;;;;;;;12.38;6.47;;;;;;;31.95;29.79;98912.63;4941192;28;20035;-76
2021/09/08 08:40:11;;;;;;;7.63;6.13;;;;;;;30.75;30.41;98917.75;4951111;29;20023;-75
2021/09/08 08:42:38;;;;;;;10.52;6.15;;;;;;;32.44;28.72;98912.84;4940384;29;20027;-76
2021/09/08 08:45:05;;;;;;;7.38;5.97;;;;;;;32.35;29.32;98908.44;4946220;28;20035;-76
2021/09/08 08:47:32;;;;;;;7.45;6.00;;;;;;;31.92;29.28;98910.28;4947635;28;20102;-76
2021/09/08 08:49:58;;;;;;;7.40;5.82;;;;;;;31.54;30.48;98913.41;4954857;28;20051;-76
2021/09/08 08:52:24;;;;;;;11.77;6.30;;;;;;;30.02;31.62;98912.34;4954109;28;20036;-76
2021/09/08 08:54:49;;;;;;;10.32;6.07;;;;;;;30.21;31.61;98914.13;4948336;28;20024;-76
2021/09/08 08:57:15;;;;;;;7.85;5.63;;;;;;;31.20;29.93;98900.75;4935552;29;20070;-76
2021/09/08 08:59:42;;;;;;;6.75;5.82;;;;;;;33.12;27.90;98890.31;4949020;29;20087;-76
2021/09/08 09:02:29;;;;;;;9.93;6.38;;;;;;;33.39;27.17;98896.31;4940934;28;20023;-76
2021/09/08 09:04:58;;;;;;;7.65;5.30;;;;;;;33.52;27.19;98890.47;4943079;29;20078;-76
2021/09/08 09:07:31;;;;;;;6.65;5.65;;;;;;;32.38;28.79;98886.69;4946534;29;20548;-76
2021/09/08 09:09:59;;;;;;;9.50;6.30;;;;;;;30.97;29.94;98885.16;4938958;28;20019;-76
2021/09/08 09:12:27;;;;;;;6.18;5.57;;;;;;;31.58;29.00;98877.25;4934907;29;20028;-76
2021/09/08 09:14:58;;;;;;;14.40;5.68;;;;;;;32.07;29.28;98877.50;4934610;29;20032;-76
2021/09/08 09:17:23;;;;;;;8.68;5.68;;;;;;;33.56;27.58;98878.34;4944941;29;20019;-76
2021/09/08 09:19:49;;;;;;;11.20;5.65;;;;;;;31.57;29.91;98871.03;4942187;28;20028;-76
2021/09/08 09:22:18;;;;;;;5.88;5.32;;;;;;;31.11;30.79;98880.25;4952008;28;20144;-76
2021/09/08 09:24:47;;;;;;;13.10;6.00;;;;;;;28.97;32.94;98875.13;4940636;29;20027;-76
2021/09/08 09:27:13;;;;;;;7.63;5.18;;;;;;;31.25;30.11;98863.63;4944085;28;20059;-76
2021/09/08 09:29:43;;;;;;;7.93;5.43;;;;;;;29.77;31.43;98871.13;4947252;29;20397;-76
2021/09/08 09:32:11;;;;;;;6.88;5.78;;;;;;;29.39;32.83;98864.91;4938612;28;20038;-76
2021/09/08 09:34:41;;;;;;;8.20;5.67;;;;;;;29.13;33.19;98863.84;4941130;28;20016;-76
2021/09/08 09:37:08;;;;;;;8.20;4.90;;;;;;;29.58;32.94;98864.03;4941759;29;20059;-76
2021/09/08 09:39:36;;;;;;;6.53;5.15;;;;;;;30.73;30.79;98855.53;4940500;28;20047;-76
2021/09/08 09:42:09;;;;;;;8.85;5.85;;;;;;;32.31;28.98;98853.44;4948069;28;20023;-76
2021/09/08 09:44:35;;;;;;;6.85;5.20;;;;;;;32.51;28.70;98850.50;4937495;29;20019;-76
2021/09/08 09:47:00;;;;;;;8.40;5.35;;;;;;;32.15;27.95;98848.03;4943856;28;20112;-76
2021/09/08 09:49:26;;;;;;;7.18;5.35;;;;;;;31.83;28.61;98854.97;4944117;29;20468;-76
2021/09/08 09:51:55;;;;;;;7.05;4.80;;;;;;;29.45;31.74;98850.16;4950522;29;20523;-76
2021/09/08 09:54:25;;;;;;;5.80;5.30;;;;;;;28.68;33.38;98837.75;4936070;28;20034;-76
2021/09/08 09:56:52;;;;;;;7.72;5.15;;;;;;;30.44;30.65;98842.34;4946838;28;20024;-76
2021/09/08 09:59:19;;;;;;;6.40;4.95;;;;;;;32.34;29.25;98831.63;4944204;29;20031;-76
2021/09/08 10:01:44;;;;;;;6.20;4.30;;;;;;;30.48;30.09;98829.53;4941207;28;20019;-76
2021/09/08 10:04:10;;;;;;;11.63;4.97;;;;;;;32.31;28.64;98821.25;4945290;29;20504;-76
2021/09/08 10:06:38;;;;;;;7.55;4.80;;;;;;;31.14;29.13;98813.88;4948728;28;20064;-76
2021/09/08 10:09:05;;;;;;;6.35;5.18;;;;;;;31.33;28.54;98809.28;4942480;29;20030;-76
2021/09/08 10:11:33;;;;;;;7.55;5.05;;;;;;;32.49;27.70;98800.53;4941084;28;20027;-76
2021/09/08 10:14:13;;;;;;;6.75;5.63;;;;;;;30.64;29.62;98800.22;4939223;29;20027;-76
2021/09/08 10:16:43;;;;;;;5.93;5.32;;;;;;;30.74;29.32;98803.69;4945277;29;20034;-76
2021/09/08 10:19:08;;;;;;;6.32;4.93;;;;;;;29.35;31.07;98802.13;4942177;29;20030;-76
2021/09/08 10:21:36;;;;;;;7.38;5.32;;;;;;;28.96;31.93;98800.53;4951876;28;20445;-76
2021/09/08 10:24:05;;;;;;;11.05;5.53;;;;;;;30.01;30.69;98792.25;4937418;28;20028;-76
2021/09/08 10:26:34;;;;;;;7.35;5.43;;;;;;;29.59;31.13;98795.44;4949129;28;20035;-76
2021/09/08 10:29:06;;;;;;;6.88;5.28;;;;;;;31.93;28.53;98785.97;4970837;23;20149;-76
2021/09/08 10:31:44;;;;;;;8.82;5.20;;;;;;;30.97;29.18;98778.09;4970151;28;20034;-76
2021/09/08 10:34:11;;;;;;;6.43;5.13;;;;;;;32.86;27.84;98766.94;4958616;28;20078;-76
2021/09/08 10:36:39;;;;;;;5.13;4.63;;;;;;;34.19;25.03;98775.25;4956246;28;20551;-76
2021/09/08 10:39:06;;;;;;;6.32;4.75;;;;;;;32.74;27.04;98773.69;4961929;28;20083;-76
2021/09/08 10:41:50;;;;;;;6.57;4.95;;;;;;;31.48;28.57;98760.34;4963519;28;20515;-76
2021/09/08 10:44:18;;;;;;;14.13;5.65;;;;;;;31.71;28.04;98759.75;4954741;28;20121;-76
2021/09/08 10:46:59;;;;;;;13.43;5.07;;;;;;;30.62;29.73;98767.47;4966462;28;20102;-76
2021/09/08 10:49:37;;;;;;;7.20;5.05;;;;;;;32.21;28.47;98748.16;4964334;28;20045;-76
2021/09/08 10:52:07;;;;;;;6.22;5.05;;;;;;;30.96;29.44;98755.03;4968791;28;20550;-76
2021/09/08 10:54:53;;;;;;;5.88;5.32;;;;;;;31.19;28.76;98749.13;4960073;28;20018;-76
2021/09/08 10:57:40;;;;;;;6.15;4.88;;;;;;;29.82;30.73;98759.31;4960275;28;20477;-76
2021/09/08 11:00:09;;;;;;;8.10;5.70;;;;;;;31.05;29.54;98749.72;4969680;28;20031;-77
2021/09/08 11:02:42;;;;;;;6.40;4.57;;;;;;;32.83;27.70;98740.47;4952378;28;20023;-76
2021/09/08 11:05:10;;;;;;;8.85;4.88;;;;;;;32.75;27.67;98732.41;4952830;28;20491;-76
2021/09/08 11:07:42;;;;;;;5.03;4.53;;;;;;;33.71;26.57;98728.78;4968517;28;20062;-76
2021/09/08 11:10:09;;;;;;;6.30;4.60;;;;;;;34.78;25.04;98727.00;4959411;28;20051;-77
2021/09/08 11:12:50;;;;;;;7.65;4.97;;;;;;;31.93;27.78;98732.38;4970291;28;20030;-76
2021/09/08 11:15:20;;;;;;;6.60;4.88;;;;;;;31.51;29.01;98718.16;4966219;28;20407;-77
2021/09/08 11:17:54;;;;;;;6.03;5.15;;;;;;;31.19;29.61;98725.03;4960694;28;20027;-77
2021/09/08 11:20:20;;;;;;;5.53;4.72;;;;;;;32.87;27.32;98720.31;4961444;28;20034;-76
2021/09/08 11:23:03;;;;;;;5.45;4.60;;;;;;;34.65;24.83;98714.16;4969750;28;20023;-77
2021/09/08 11:25:32;;;;;;;6.80;4.13;;;;;;;34.36;25.58;98717.59;4963353;28;20031;-76
2021/09/08 11:27:57;;;;;;;7.72;4.90;;;;;;;32.24;27.89;98718.31;4971448;28;20026;-77
2021/09/08 11:30:27;;;;;;;5.00;4.50;;;;;;;34.45;25.34;98713.84;4971335;28;20031;-76
2021/09/08 11:33:05;;;;;;;6.30;4.75;;;;;;;31.52;28.82;98715.31;4959534;28;20073;-76
2021/09/08 11:35:32;;;;;;;10.07;5.17;;;;;;;33.35;26.81;98721.19;4958891;28;20027;-77
2021/09/08 11:37:57;;;;;;;8.20;4.78;;;;;;;31.11;29.14;98725.00;4971359;28;20026;-77
2021/09/08 11:40:23;;;;;;;6.93;4.43;;;;;;;32.60;28.68;98715.34;4958505;28;20045;-76
2021/09/08 11:42:48;;;;;;;5.43;4.68;;;;;;;31.44;29.64;98726.84;4967577;28;20061;-76
2021/09/08 11:45:26;;;;;;;6.67;4.77;;;;;;;32.28;27.75;98708.94;4965279;28;20054;-76
2021/09/08 11:47:51;;;;;;;5.82;4.80;;;;;;;34.23;25.78;98711.97;4956482;28;20290;-77
2021/09/08 11:50:16;;;;;;;11.88;5.18;;;;;;;30.97;28.94;98721.91;4969468;28;20472;-76
2021/09/08 11:52:42;;;;;;;7.57;5.10;;;;;;;33.58;26.52;98717.78;4968366;28;20027;-76
2021/09/08 11:55:22;;;;;;;6.85;4.45;;;;;;;32.05;27.92;98715.97;4960466;28;20099;-76
2021/09/08 11:57:47;;;;;;;7.38;4.70;;;;;;;32.53;27.34;98711.63;4960176;28;20488;-76
2021/09/08 12:00:14;;;;;;;6.57;4.57;;;;;;;32.84;27.34;98709.94;4970954;28;20065;-77
2021/09/08 12:02:39;;;;;;;5.85;4.18;;;;;;;32.86;26.86;98699.84;4951159;28;20046;-77
2021/09/08 12:05:05;;;;;;;8.07;4.80;;;;;;;30.86;29.97;98706.13;4970559;28;20110;-76
2021/09/08 12:07:30;;;;;;;9.77;4.85;;;;;;;29.93;31.14;98697.66;4962225;28;20035;-77
2021/09/08 12:09:56;;;;;;;6.90;5.00;;;;;;;28.49;33.27;98713.28;4970435;28;20077;-76
2021/09/08 12:12:21;;;;;;;5.45;4.82;;;;;;;29.10;31.63;98696.84;4958094;28;20026;-76
2021/09/08 12:14:49;;;;;;;5.22;4.72;;;;;;;28.84;32.95;98695.78;4967312;28;20103;-76
2021/09/08 12:17:27;;;;;;;7.78;5.68;;;;;;;28.63;34.15;98688.00;4964819;28;20030;-76
2021/09/08 12:20:02;;;;;;;8.13;4.67;;;;;;;28.64;33.21;98681.69;4956157;28;20020;-76
2021/09/08 12:22:38;;;;;;;7.90;4.80;;;;;;;28.39;33.44;98683.13;4958574;28;20291;-76
2021/09/08 12:25:05;;;;;;;6.40;4.93;;;;;;;28.26;35.24;98677.22;4965557;28;20023;-76
2021/09/08 12:27:35;;;;;;;7.80;4.97;;;;;;;28.25;33.69;98671.06;4966477;28;20086;-76
2021/09/08 12:30:03;;;;;;;5.70;4.72;;;;;;;28.43;33.66;98673.84;4973674;28;20030;-76
2021/09/08 12:32:51;;;;;;;6.45;4.35;;;;;;;28.21;32.85;98680.31;4957201;28;20018;-76
2021/09/08 12:35:42;;;;;;;7.10;4.80;;;;;;;28.43;32.47;98668.50;4951879;28;20027;-76
2021/09/08 12:38:30;;;;;;;7.10;5.28;;;;;;;28.30;33.99;98660.81;4969804;28;20432;-76
2021/09/08 12:41:27;;;;;;;7.80;5.20;;;;;;;28.54;34.26;98664.88;4961968;28;20019;-76
2021/09/08 12:43:52;;;;;;;5.53;4.68;;;;;;;28.91;33.60;98656.88;4958661;28;20037;-76
2021/09/08 12:46:35;;;;;;;6.23;4.77;;;;;;;28.36;34.54;98657.59;4970239;28;20023;-76
2021/09/08 12:49:01;;;;;;;5.10;4.60;;;;;;;28.05;34.24;98656.09;4961951;28;20365;-76
2021/09/08 12:51:26;;;;;;;8.60;5.30;;;;;;;27.59;34.16;98653.06;4969369;28;20054;-77
2021/09/08 12:53:51;;;;;;;5.32;4.78;;;;;;;27.62;34.08;98643.97;4958693;28;20475;-76
2021/09/08 12:56:17;;;;;;;9.80;5.10;;;;;;;27.70;33.72;98649.44;4970094;28;20491;-76
2021/09/08 12:58:42;;;;;;;8.48;4.70;;;;;;;26.92;36.47;98643.91;4959810;28;20041;-76
2021/09/08 13:01:08;;;;;;;6.25;4.63;;;;;;;26.69;38.62;98642.44;4963696;28;20059;-76
2021/09/08 13:03:33;;;;;;;5.05;4.40;;;;;;;27.10;36.04;98638.00;4957385;28;20031;-76
2021/09/08 13:05:58;;;;;;;6.10;4.75;;;;;;;27.74;35.62;98629.56;4970126;28;20407;-76
2021/09/08 13:08:23;;;;;;;4.90;4.22;;;;;;;27.37;33.60;98627.56;4955936;28;20027;-76
2021/09/08 13:10:49;;;;;;;5.38;4.25;;;;;;;27.75;33.38;98628.59;4966670;28;20023;-76
2021/09/08 13:13:14;;;;;;;4.70;4.05;;;;;;;27.63;33.63;98625.19;4963195;28;20030;-76
2021/09/08 13:15:41;;;;;;;4.50;4.10;;;;;;;27.96;35.09;98627.63;4959459;28;20023;-76
2021/09/08 13:18:07;;;;;;;5.55;4.50;;;;;;;27.86;35.93;98614.31;4969682;28;20026;-76
2021/09/08 13:20:32;;;;;;;9.05;5.75;;;;;;;27.87;34.14;98618.66;4949804;28;20023;-77
2021/09/08 13:22:58;;;;;;;5.00;4.15;;;;;;;27.93;33.88;98610.09;4960735;28;20029;-76
2021/09/08 13:25:23;;;;;;;5.38;4.40;;;;;;;28.02;34.82;98608.41;4961945;28;20472;-76
2021/09/08 13:27:49;;;;;;;7.13;4.70;;;;;;;28.01;34.00;98610.22;4968303;28;20369;-76
2021/09/08 13:30:14;;;;;;;4.85;4.35;;;;;;;27.65;33.86;98609.06;4970793;28;20089;-77
2021/09/08 13:32:40;;;;;;;6.95;4.63;;;;;;;27.48;34.14;98607.13;4957464;28;20037;-77
2021/09/08 13:35:05;;;;;;;7.95;4.20;;;;;;;27.58;35.29;98602.63;4956021;28;20102;-77
2021/09/08 13:37:31;;;;;;;7.22;4.47;;;;;;;27.89;35.81;98601.53;4965784;28;20054;-77
2021/09/08 13:39:56;;;;;;;6.30;3.85;;;;;;;27.71;33.81;98587.25;4971616;28;20046;-77
2021/09/08 13:42:21;;;;;;;6.32;4.03;;;;;;;27.71;33.36;98587.25;4939131;28;20027;-77
2021/09/08 13:44:47;;;;;;;9.50;4.18;;;;;;;27.82;33.70;98588.94;4949071;29;20118;-77
2021/09/08 13:47:12;;;;;;;5.93;4.47;;;;;;;28.00;33.91;98581.06;4933553;29;20027;-77
2021/09/08 13:49:38;;;;;;;6.03;4.32;;;;;;;28.37;33.84;98579.31;4934878;29;20027;-77
2021/09/08 13:52:03;;;;;;;6.45;4.70;;;;;;;28.40;34.04;98583.53;4953667;28;20023;-77
2021/09/08 13:54:29;;;;;;;5.90;4.40;;;;;;;28.49;34.17;98579.16;4952682;29;20078;-77
2021/09/08 13:56:54;;;;;;;6.50;4.03;;;;;;;27.90;32.50;98576.59;4953631;28;20031;-78
2021/09/08 13:59:19;;;;;;;4.20;3.80;;;;;;;28.08;32.62;98576.69;4953601;28;20472;-77
2021/09/08 14:01:44;;;;;;;6.93;4.07;;;;;;;27.61;32.85;98570.44;4953341;28;20034;-77
2021/09/08 14:04:10;;;;;;;24.10;18.33;;;;;;;27.99;33.79;98563.38;4964543;28;20114;-77
2021/09/08 14:06:35;;;;;;;4.97;4.45;;;;;;;28.17;32.36;98567.00;4972730;28;20031;-76
2021/09/08 14:09:00;;;;;;;5.50;3.72;;;;;;;27.83;32.20;98564.81;4971555;28;20031;-77
2021/09/08 14:11:26;;;;;;;6.22;3.97;;;;;;;27.86;32.65;98561.88;4972156;28;20034;-77
2021/09/08 14:13:51;;;;;;;4.28;3.78;;;;;;;28.02;32.29;98563.94;4972669;28;20027;-77
2021/09/08 14:16:16;;;;;;;6.05;3.70;;;;;;;28.00;32.19;98570.41;4972668;28;20089;-77
2021/09/08 14:18:42;;;;;;;6.80;4.15;;;;;;;28.28;33.90;98558.81;4971347;28;20026;-77
2021/09/08 14:21:07;;;;;;;4.35;3.90;;;;;;;28.12;31.86;98566.59;4959593;28;20027;-77
2021/09/08 14:23:33;;;;;;;4.90;4.38;;;;;;;28.29;31.18;98562.34;4953325;28;20119;-78
2021/09/08 14:25:59;;;;;;;5.85;3.95;;;;;;;28.42;31.40;98558.38;4953495;28;20086;-78
2021/09/08 14:28:26;;;;;;;6.30;4.15;;;;;;;28.49;32.14;98557.81;4954313;28;20093;-77
2021/09/08 14:30:52;;;;;;;4.78;3.90;;;;;;;28.06;33.12;98548.53;4957118;28;20547;-77
2021/09/08 14:33:18;;;;;;;7.90;3.90;;;;;;;28.07;32.88;98551.03;4963716;28;20037;-77
2021/09/08 14:35:44;;;;;;;3.45;3.15;;;;;;;28.24;31.38;98543.25;4973996;28;20035;-77
2021/09/08 14:38:11;;;;;;;13.50;3.88;;;;;;;28.25;31.51;98548.47;4976063;28;20564;-77
2021/09/08 14:40:36;;;;;;;5.63;3.83;;;;;;;28.03;32.30;98543.47;4976183;28;20399;-77
2021/09/08 14:43:02;;;;;;;5.53;3.72;;;;;;;27.79;32.45;98542.13;4975852;28;20027;-77
2021/09/08 14:45:28;;;;;;;16.48;4.38;;;;;;;28.07;32.62;98539.53;4974883;28;20419;-77
2021/09/08 14:47:55;;;;;;;5.38;3.33;;;;;;;27.70;32.40;98529.63;4975897;28;20481;-77
2021/09/08 14:50:20;;;;;;;4.82;3.40;;;;;;;27.96;32.11;98537.06;4967941;28;20027;-77
2021/09/08 14:52:46;;;;;;;11.98;4.32;;;;;;;27.49;32.28;98536.94;4956470;28;20058;-77
2021/09/08 14:55:12;;;;;;;6.38;3.70;;;;;;;27.46;33.37;98526.56;4956643;28;20027;-77
2021/09/08 14:57:38;;;;;;;10.15;3.70;;;;;;;27.82;33.35;98530.34;4956431;28;20027;-77
2021/09/08 15:00:05;;;;;;;5.65;4.03;;;;;;;27.95;33.12;98522.03;4956469;28;20031;-77
2021/09/08 15:02:30;;;;;;;7.30;3.80;;;;;;;27.89;33.05;98521.63;4962452;28;20440;-78
2021/09/08 15:04:56;;;;;;;6.05;3.72;;;;;;;27.76;32.79;98521.13;4967390;28;20027;-77
2021/09/08 15:07:21;;;;;;;4.85;3.85;;;;;;;27.84;32.69;98520.38;4975748;28;20114;-78
2021/09/08 15:09:47;;;;;;;6.95;5.47;;;;;;;27.86;32.77;98516.59;4975601;28;20081;-77
2021/09/08 15:12:12;;;;;;;11.25;8.00;;;;;;;27.93;32.27;98516.84;4975560;28;20042;-77
2021/09/08 15:14:39;;;;;;;6.15;3.67;;;;;;;27.73;32.93;98516.06;4974247;28;20078;-77
2021/09/08 15:17:04;;;;;;;9.23;3.90;;;;;;;27.58;33.35;98514.78;4975524;28;20035;-77
2021/09/08 15:19:30;;;;;;;6.22;3.40;;;;;;;27.45;34.03;98506.25;4975472;28;20053;-77
2021/09/08 15:21:55;;;;;;;4.80;3.75;;;;;;;27.47;34.96;98504.31;4956215;28;20023;-77
2021/09/08 15:24:21;;;;;;;7.05;4.00;;;;;;;27.57;35.42;98502.47;4955950;28;20114;-77
2021/09/08 15:26:47;;;;;;;4.32;3.92;;;;;;;27.72;33.89;98509.06;4955982;28;20030;-77
2021/09/08 15:29:12;;;;;;;4.57;4.00;;;;;;;27.82;34.52;98499.22;4954506;28;20027;-77
2021/09/08 15:31:38;;;;;;;3.58;3.28;;;;;;;27.40;33.78;98504.84;4954746;28;20038;-77
2021/09/08 15:34:03;;;;;;;6.63;3.58;;;;;;;27.64;34.58;98504.41;4965749;28;20134;-77
2021/09/08 15:36:30;;;;;;;4.70;3.60;;;;;;;27.61;33.64;98507.38;4975143;28;20492;-77
2021/09/08 15:38:56;;;;;;;6.47;3.58;;;;;;;27.63;33.78;98499.22;4973209;28;20027;-77
2021/09/08 15:41:21;;;;;;;5.80;3.83;;;;;;;27.58;34.98;98504.16;4974783;28;20035;-77